地図

経路データ

SID SEASON NUMBER BASIN SUBBASIN NAME ISO_TIME NATURE LAT LON WMO_WIND WMO_PRES WMO_AGENCY TRACK_TYPE DIST2LAND LANDFALL IFLAG USA_AGENCY USA_ATCF_ID USA_LAT USA_LON USA_RECORD USA_STATUS USA_WIND USA_PRES USA_SSHS USA_R34_NE USA_R34_SE USA_R34_SW USA_R34_NW USA_R50_NE USA_R50_SE USA_R50_SW USA_R50_NW USA_R64_NE USA_R64_SE USA_R64_SW USA_R64_NW USA_POCI USA_ROCI USA_RMW USA_EYE TOKYO_LAT TOKYO_LON TOKYO_GRADE TOKYO_WIND TOKYO_PRES TOKYO_R50_DIR TOKYO_R50_LONG TOKYO_R50_SHORT TOKYO_R30_DIR TOKYO_R30_LONG TOKYO_R30_SHORT TOKYO_LAND CMA_LAT CMA_LON CMA_CAT CMA_WIND CMA_PRES HKO_LAT HKO_LON HKO_CAT HKO_WIND HKO_PRES NEWDELHI_LAT NEWDELHI_LON NEWDELHI_GRADE NEWDELHI_WIND NEWDELHI_PRES NEWDELHI_CI NEWDELHI_DP NEWDELHI_POCI REUNION_LAT REUNION_LON REUNION_TYPE REUNION_WIND REUNION_PRES REUNION_TNUM REUNION_CI REUNION_RMW REUNION_R34_NE REUNION_R34_SE REUNION_R34_SW REUNION_R34_NW REUNION_R50_NE REUNION_R50_SE REUNION_R50_SW REUNION_R50_NW REUNION_R64_NE REUNION_R64_SE REUNION_R64_SW REUNION_R64_NW BOM_LAT BOM_LON BOM_TYPE BOM_WIND BOM_PRES BOM_TNUM BOM_CI BOM_RMW BOM_R34_NE BOM_R34_SE BOM_R34_SW BOM_R34_NW BOM_R50_NE BOM_R50_SE BOM_R50_SW BOM_R50_NW BOM_R64_NE BOM_R64_SE BOM_R64_SW BOM_R64_NW BOM_ROCI BOM_POCI BOM_EYE BOM_POS_METHOD BOM_PRES_METHOD NADI_LAT NADI_LON NADI_CAT NADI_WIND NADI_PRES WELLINGTON_LAT WELLINGTON_LON WELLINGTON_WIND WELLINGTON_PRES DS824_LAT DS824_LON DS824_STAGE DS824_WIND DS824_PRES TD9636_LAT TD9636_LON TD9636_STAGE TD9636_WIND TD9636_PRES TD9635_LAT TD9635_LON TD9635_WIND TD9635_PRES TD9635_ROCI NEUMANN_LAT NEUMANN_LON NEUMANN_CLASS NEUMANN_WIND NEUMANN_PRES MLC_LAT MLC_LON MLC_CLASS MLC_WIND MLC_PRES USA_GUST BOM_GUST BOM_GUST_PER REUNION_GUST REUNION_GUST_PER USA_SEAHGT USA_SEARAD_NE USA_SEARAD_SE USA_SEARAD_SW USA_SEARAD_NW STORM_SPEED STORM_DIR
2020024S14190 2020 7 SP MM NOT_NAMED 2020-01-24 06:00:00 NR -14.3000 -169.600 main 286 286 O_____________ jtwc_sh SH122020 -14.3000 -169.600 DB 15 1009 -3 1005 165 20 6 168
2020024S14190 2020 7 SP MM NOT_NAMED 2020-01-24 09:00:00 NR -14.6099 -169.535 main 304 304 P_____________ SH122020 -14.6099 -169.535 DB 17 1008 -3 1005 170 20 7 165
2020024S14190 2020 7 SP MM NOT_NAMED 2020-01-24 12:00:00 NR -15.0000 -169.400 main 330 330 O_____________ jtwc_sh SH122020 -15.0000 -169.400 DB 20 1007 -3 1005 175 20 10 158
2020024S14190 2020 7 SP MM NOT_NAMED 2020-01-24 15:00:00 NR -15.5326 -169.158 main 374 374 P_____________ SH122020 -15.5326 -169.158 DB 22 1005 -3 1005 175 27 13 158
2020024S14190 2020 7 SP MM NOT_NAMED 2020-01-24 18:00:00 TS -16.2000 -168.900 main 444 444 O_____________ jtwc_sh SH122020 -16.2000 -168.900 TD 25 1004 -1 1006 175 35 15 164
2020024S14190 2020 7 SP MM NOT_NAMED 2020-01-24 21:00:00 TS -16.9775 -168.735 main 518 518 P_____________ SH122020 -16.9775 -168.735 TD 25 1004 -1 1006 175 35 16 170
2020024S14190 2020 7 SP MM NOT_NAMED 2020-01-25 00:00:00 TS -17.8000 -168.600 main 590 590 O_____________ jtwc_sh SH122020 -17.8000 -168.600 TD 25 1004 -1 1006 175 35 16 171
2020024S14190 2020 7 SP MM NOT_NAMED 2020-01-25 03:00:00 TS -18.5724 -168.465 main 666 666 P_____________ SH122020 -18.5724 -168.465 TD 27 1003 -1 1006 175 35 15 169
2020024S14190 2020 7 SP MM NOT_NAMED 2020-01-25 06:00:00 TS -19.3000 -168.300 main 742 742 O_____________ jtwc_sh SH122020 -19.3000 -168.300 TD 30 1002 -1 1006 175 35 15 165
2020024S14190 2020 7 SP MM NOT_NAMED 2020-01-25 09:00:00 TS -20.0250 -168.065 main 819 819 P_____________ SH122020 -20.0250 -168.065 TD 32 1002 -1 1006 175 42 14 160
2020024S14190 2020 7 SP MM NOT_NAMED 2020-01-25 12:00:00 TS -20.6000 -167.800 main 892 892 O_____________ jtwc_sh SH122020 -20.6000 -167.800 TS 35 1003 0 95 50 1006 175 50 10 151
2020024S14190 2020 7 SP MM NOT_NAMED 2020-01-25 15:00:00 TS -20.8949 -167.550 main 937 937 P_____________ SH122020 -20.8949 -167.550 TS 35 1001 0 122 62 1006 175 50 7 137
2020024S14190 2020 7 SP MM NOT_NAMED 2020-01-25 18:00:00 TS -21.1000 -167.300 main 967 967 O_____________ jtwc_sh SH122020 -21.1000 -167.300 TS 35 1000 0 150 75 1006 175 50 8 140
2020024S14190 2020 7 SP MM NOT_NAMED 2020-01-25 21:00:00 TS -21.4650 -167.028 main 1022 1022 P_____________ SH122020 -21.4650 -167.028 TS 32 1001 -1 1006 175 52 8 146
2020024S14190 2020 7 SP MM NOT_NAMED 2020-01-26 00:00:00 TS -21.8000 -166.800 main 1061 1061 O_____________ jtwc_sh SH122020 -21.8000 -166.800 TD 30 1002 -1 1006 175 55 6 148
2020024S14190 2020 7 SP MM NOT_NAMED 2020-01-26 03:00:00 TS -21.9874 -166.677 main 1086 1086 P_____________ SH122020 -21.9874 -166.677 TD 27 1002 -1 1006 165 55 4 149
2020024S14190 2020 7 SP MM NOT_NAMED 2020-01-26 06:00:00 TS -22.1000 -166.600 main 1101 1101 O_____________ jtwc_sh SH122020 -22.1000 -166.600 TD 25 1003 -1 1006 155 55 3 144
2020024S14190 2020 7 SP MM NOT_NAMED 2020-01-26 09:00:00 TS -22.2150 -166.500 main 1116 1116 P_____________ SH122020 -22.2150 -166.500 TD 25 1003 -1 1006 155 55 3 137
2020024S14190 2020 7 SP MM NOT_NAMED 2020-01-26 12:00:00 TS -22.3000 -166.400 main 1131 1131 O_____________ jtwc_sh SH122020 -22.3000 -166.400 TD 25 1003 -1 1006 155 55 2 126
2020024S14190 2020 7 SP MM NOT_NAMED 2020-01-26 15:00:00 TS -22.3575 -166.292 main 1146 1146 P_____________ SH122020 -22.3575 -166.292 TD 25 1002 -1 1006 155 55 2 119
2020024S14190 2020 7 SP MM NOT_NAMED 2020-01-26 18:00:00 TS -22.4000 -166.200 main 1151 1151 O_____________ jtwc_sh SH122020 -22.4000 -166.200 TD 25 1002 -1 1006 155 55 2 127
2020024S14190 2020 7 SP MM NOT_NAMED 2020-01-26 21:00:00 TS -22.4575 -166.143 main 1166 1166 P_____________ SH122020 -22.4575 -166.143 TD 25 1002 -1 1006 155 55 1 140
2020024S14190 2020 7 SP MM NOT_NAMED 2020-01-27 00:00:00 TS -22.5000 -166.100 main 1166 1166 O_____________ jtwc_sh SH122020 -22.5000 -166.100 TD 25 1002 -1 1006 155 55 1 111
2020024S14190 2020 7 SP MM NOT_NAMED 2020-01-27 03:00:00 TS -22.4925 -166.050 main 1172 1172 P_____________ SH122020 -22.4925 -166.050 TD 22 1003 -1 1006 167 55 1 90
2020024S14190 2020 7 SP MM NOT_NAMED 2020-01-27 06:00:00 NR -22.5000 -166.000 main 1172 1172 O_____________ jtwc_sh SH122020 -22.5000 -166.000 DB 20 1005 -3 1007 180 55 1 135
2020024S14190 2020 7 SP MM NOT_NAMED 2020-01-27 09:00:00 NR -22.5850 -165.943 main 1187 1187 P_____________ SH122020 -22.5850 -165.943 DB 20 1005 -3 1007 177 52 2 155
2020024S14190 2020 7 SP MM NOT_NAMED 2020-01-27 12:00:00 NR -22.7000 -165.900 main 1197 1197 O_____________ jtwc_sh SH122020 -22.7000 -165.900 DB 20 1006 -3 1008 175 50 2 161
2020024S14190 2020 7 SP MM NOT_NAMED 2020-01-27 15:00:00 NR -22.8000 -165.870 main 1206 1206 P_____________ SH122020 -22.8000 -165.870 DB 20 1006 -3 1008 175 50 2 172
2020024S14190 2020 7 SP MM NOT_NAMED 2020-01-27 18:00:00 NR -22.9000 -165.900 main 1215 1215 O_____________ jtwc_sh SH122020 -22.9000 -165.900 DB 20 1006 -3 1008 175 50 2 216
2020024S14190 2020 7 SP MM NOT_NAMED 2020-01-27 21:00:00 NR -23.0000 -166.027 main 1219 1213 P_____________ SH122020 -23.0000 -166.027 DB 20 1006 -3 1008 175 50 3 234
2020024S14190 2020 7 SP MM NOT_NAMED 2020-01-28 00:00:00 NR -23.1000 -166.200 main 1217 1211 O_____________ jtwc_sh SH122020 -23.1000 -166.200 DB 20 1007 -3 1009 175 50 3 237
2020024S14190 2020 7 SP MM NOT_NAMED 2020-01-28 03:00:00 NR -23.1698 -166.313 main 1221 1216 P_____________ SH122020 -23.1698 -166.313 DB 20 1006 -3 1008 137 50 3 234
2020024S14190 2020 7 SP MM NOT_NAMED 2020-01-28 06:00:00 NR -23.3000 -166.500 main 1220 1215 O_____________ jtwc_sh SH122020 -23.3000 -166.500 DB 20 1006 -3 1008 100 50 6 231
2020024S14190 2020 7 SP MM NOT_NAMED 2020-01-28 09:00:00 NR -23.5701 -166.855 main 1229 1229 P_____________ SH122020 -23.5701 -166.855 DB 20 1007 -3 1008 107 50 9 231
2020024S14190 2020 7 SP MM NOT_NAMED 2020-01-28 12:00:00 NR -23.9000 -167.300 main 1241 1237 O_____________ jtwc_sh SH122020 -23.9000 -167.300 DB 20 1008 -3 1009 115 50 10 232
2020024S14190 2020 7 SP MM NOT_NAMED 2020-01-28 15:00:00 NR -24.2102 -167.752 main 1251 1251 P_____________ SH122020 -24.2102 -167.752 DB 20 1008 -3 1009 120 47 10 234
2020024S14190 2020 7 SP MM NOT_NAMED 2020-01-28 18:00:00 NR -24.5000 -168.200 main 1268 O_____________ jtwc_sh SH122020 -24.5000 -168.200 DB 20 1008 -3 1009 125 45 10 235

デジタル台風データ・検索

IBTrACS Databaseについて

本データベースは、米国NOAAが公開する1842年以降の世界の熱帯低気圧のベストトラックデータアーカイブInternational Best Track Archive for Climate Stewardship (IBTrACS)を、ウェブで閲覧しやすい形式に変換したものです。

最終更新日:2022-01-17